sensor_id;sensor_type;location;lat;lon;timestamp;P1;durP1;ratioP1;P2;durP2;ratioP2
31282;SDS011;17915;52.540;13.604;2023-04-12T00:00:21;5.63;;;3.47;;
31282;SDS011;17915;52.540;13.604;2023-04-12T00:02:47;8.70;;;3.30;;
31282;SDS011;17915;52.540;13.604;2023-04-12T00:05:13;7.75;;;3.90;;
31282;SDS011;17915;52.540;13.604;2023-04-12T00:07:39;5.90;;;3.27;;
31282;SDS011;17915;52.540;13.604;2023-04-12T00:10:06;6.95;;;3.17;;
31282;SDS011;17915;52.540;13.604;2023-04-12T00:12:33;6.35;;;3.65;;
31282;SDS011;17915;52.540;13.604;2023-04-12T00:14:58;4.50;;;3.83;;
31282;SDS011;17915;52.540;13.604;2023-04-12T00:17:25;4.78;;;3.97;;
31282;SDS011;17915;52.540;13.604;2023-04-12T00:19:51;4.07;;;3.83;;
31282;SDS011;17915;52.540;13.604;2023-04-12T00:22:16;4.67;;;3.50;;
31282;SDS011;17915;52.540;13.604;2023-04-12T00:24:41;7.27;;;3.63;;
31282;SDS011;17915;52.540;13.604;2023-04-12T00:27:07;9.55;;;3.97;;
31282;SDS011;17915;52.540;13.604;2023-04-12T00:29:33;8.03;;;4.33;;
31282;SDS011;17915;52.540;13.604;2023-04-12T00:31:58;4.80;;;4.33;;
31282;SDS011;17915;52.540;13.604;2023-04-12T00:34:26;4.88;;;3.35;;
31282;SDS011;17915;52.540;13.604;2023-04-12T00:36:52;5.97;;;4.45;;
31282;SDS011;17915;52.540;13.604;2023-04-12T00:39:17;12.93;;;4.53;;
31282;SDS011;17915;52.540;13.604;2023-04-12T00:41:43;7.63;;;4.67;;
31282;SDS011;17915;52.540;13.604;2023-04-12T00:44:08;7.07;;;4.53;;
31282;SDS011;17915;52.540;13.604;2023-04-12T00:46:34;7.90;;;5.20;;
31282;SDS011;17915;52.540;13.604;2023-04-12T00:48:59;7.43;;;4.93;;
31282;SDS011;17915;52.540;13.604;2023-04-12T00:51:26;6.60;;;4.80;;
31282;SDS011;17915;52.540;13.604;2023-04-12T00:53:57;7.07;;;4.25;;
31282;SDS011;17915;52.540;13.604;2023-04-12T00:56:24;13.45;;;4.80;;
31282;SDS011;17915;52.540;13.604;2023-04-12T00:58:51;9.55;;;4.65;;
31282;SDS011;17915;52.540;13.604;2023-04-12T01:01:17;7.07;;;4.43;;
31282;SDS011;17915;52.540;13.604;2023-04-12T01:03:43;6.53;;;4.85;;
31282;SDS011;17915;52.540;13.604;2023-04-12T01:09:35;6.88;;;3.85;;
31282;SDS011;17915;52.540;13.604;2023-04-12T01:17:09;12.10;;;5.30;;
31282;SDS011;17915;52.540;13.604;2023-04-12T01:19:51;6.65;;;4.00;;
31282;SDS011;17915;52.540;13.604;2023-04-12T01:28:04;10.77;;;5.00;;
31282;SDS011;17915;52.540;13.604;2023-04-12T01:30:31;8.52;;;5.15;;
31282;SDS011;17915;52.540;13.604;2023-04-12T01:32:58;10.52;;;5.07;;
31282;SDS011;17915;52.540;13.604;2023-04-12T01:35:29;12.68;;;4.82;;
31282;SDS011;17915;52.540;13.604;2023-04-12T01:37:56;8.63;;;5.13;;
31282;SDS011;17915;52.540;13.604;2023-04-12T01:40:22;9.40;;;6.65;;
31282;SDS011;17915;52.540;13.604;2023-04-12T01:42:48;5.38;;;4.90;;
31282;SDS011;17915;52.540;13.604;2023-04-12T01:45:14;5.03;;;4.47;;
31282;SDS011;17915;52.540;13.604;2023-04-12T01:47:39;11.13;;;4.07;;
31282;SDS011;17915;52.540;13.604;2023-04-12T01:52:45;6.32;;;3.72;;
31282;SDS011;17915;52.540;13.604;2023-04-12T01:55:27;6.50;;;4.38;;
31282;SDS011;17915;52.540;13.604;2023-04-12T01:57:54;8.80;;;4.03;;
31282;SDS011;17915;52.540;13.604;2023-04-12T02:02:46;7.15;;;4.78;;
31282;SDS011;17915;52.540;13.604;2023-04-12T02:05:11;5.00;;;4.50;;
31282;SDS011;17915;52.540;13.604;2023-04-12T02:07:37;7.03;;;4.70;;
31282;SDS011;17915;52.540;13.604;2023-04-12T02:10:04;4.53;;;4.13;;
31282;SDS011;17915;52.540;13.604;2023-04-12T02:12:29;12.32;;;6.47;;
31282;SDS011;17915;52.540;13.604;2023-04-12T02:14:55;7.40;;;4.77;;
31282;SDS011;17915;52.540;13.604;2023-04-12T02:17:21;7.80;;;6.32;;
31282;SDS011;17915;52.540;13.604;2023-04-12T02:19:46;7.30;;;4.57;;
31282;SDS011;17915;52.540;13.604;2023-04-12T02:22:12;6.07;;;4.73;;
31282;SDS011;17915;52.540;13.604;2023-04-12T02:24:38;12.13;;;5.13;;
31282;SDS011;17915;52.540;13.604;2023-04-12T02:27:03;6.72;;;5.45;;
31282;SDS011;17915;52.540;13.604;2023-04-12T02:29:30;7.38;;;5.38;;
31282;SDS011;17915;52.540;13.604;2023-04-12T02:31:55;4.20;;;3.70;;
31282;SDS011;17915;52.540;13.604;2023-04-12T02:34:20;14.20;;;5.00;;
31282;SDS011;17915;52.540;13.604;2023-04-12T02:36:47;6.30;;;3.83;;
31282;SDS011;17915;52.540;13.604;2023-04-12T02:41:38;9.43;;;3.95;;
31282;SDS011;17915;52.540;13.604;2023-04-12T02:44:04;9.20;;;3.77;;
31282;SDS011;17915;52.540;13.604;2023-04-12T02:46:29;6.93;;;4.70;;
31282;SDS011;17915;52.540;13.604;2023-04-12T02:48:55;9.20;;;3.80;;
31282;SDS011;17915;52.540;13.604;2023-04-12T02:51:20;4.67;;;4.17;;
31282;SDS011;17915;52.540;13.604;2023-04-12T02:53:45;4.33;;;3.93;;
31282;SDS011;17915;52.540;13.604;2023-04-12T02:56:11;13.47;;;4.73;;
31282;SDS011;17915;52.540;13.604;2023-04-12T02:58:37;5.13;;;4.60;;
31282;SDS011;17915;52.540;13.604;2023-04-12T03:01:03;7.50;;;5.07;;
31282;SDS011;17915;52.540;13.604;2023-04-12T03:03:31;12.02;;;4.63;;
31282;SDS011;17915;52.540;13.604;2023-04-12T03:05:58;8.45;;;4.82;;
31282;SDS011;17915;52.540;13.604;2023-04-12T03:08:23;13.47;;;4.03;;
31282;SDS011;17915;52.540;13.604;2023-04-12T03:10:48;7.37;;;4.73;;
31282;SDS011;17915;52.540;13.604;2023-04-12T03:13:14;8.63;;;3.87;;
31282;SDS011;17915;52.540;13.604;2023-04-12T03:15:41;8.88;;;4.90;;
31282;SDS011;17915;52.540;13.604;2023-04-12T03:18:07;7.25;;;4.53;;
31282;SDS011;17915;52.540;13.604;2023-04-12T03:20:33;5.63;;;4.77;;
31282;SDS011;17915;52.540;13.604;2023-04-12T03:22:59;9.93;;;5.03;;
31282;SDS011;17915;52.540;13.604;2023-04-12T03:25:24;10.40;;;4.30;;
31282;SDS011;17915;52.540;13.604;2023-04-12T03:27:50;7.27;;;3.80;;
31282;SDS011;17915;52.540;13.604;2023-04-12T03:30:15;6.20;;;3.70;;
31282;SDS011;17915;52.540;13.604;2023-04-12T03:32:41;5.73;;;3.60;;
31282;SDS011;17915;52.540;13.604;2023-04-12T03:35:07;4.70;;;4.30;;
31282;SDS011;17915;52.540;13.604;2023-04-12T03:37:33;8.80;;;4.75;;
31282;SDS011;17915;52.540;13.604;2023-04-12T03:39:59;10.18;;;4.90;;
31282;SDS011;17915;52.540;13.604;2023-04-12T03:42:24;12.83;;;5.37;;
31282;SDS011;17915;52.540;13.604;2023-04-12T03:44:51;5.03;;;4.47;;
31282;SDS011;17915;52.540;13.604;2023-04-12T03:47:16;7.97;;;5.10;;
31282;SDS011;17915;52.540;13.604;2023-04-12T03:49:42;7.65;;;5.10;;
31282;SDS011;17915;52.540;13.604;2023-04-12T03:52:08;10.10;;;5.63;;
31282;SDS011;17915;52.540;13.604;2023-04-12T03:54:33;7.93;;;5.13;;
31282;SDS011;17915;52.540;13.604;2023-04-12T03:56:59;4.87;;;4.37;;
31282;SDS011;17915;52.540;13.604;2023-04-12T04:01:51;11.05;;;5.55;;
31282;SDS011;17915;52.540;13.604;2023-04-12T04:04:16;8.30;;;5.70;;
31282;SDS011;17915;52.540;13.604;2023-04-12T04:06:42;6.77;;;4.80;;
31282;SDS011;17915;52.540;13.604;2023-04-12T04:09:07;6.37;;;4.90;;
31282;SDS011;17915;52.540;13.604;2023-04-12T04:11:34;8.73;;;4.37;;
31282;SDS011;17915;52.540;13.604;2023-04-12T04:13:59;10.43;;;4.90;;
31282;SDS011;17915;52.540;13.604;2023-04-12T04:16:25;12.90;;;6.83;;
31282;SDS011;17915;52.540;13.604;2023-04-12T04:18:50;7.45;;;3.55;;
31282;SDS011;17915;52.540;13.604;2023-04-12T04:21:16;9.37;;;5.97;;
31282;SDS011;17915;52.540;13.604;2023-04-12T04:23:41;6.37;;;4.83;;
31282;SDS011;17915;52.540;13.604;2023-04-12T04:26:11;8.35;;;4.72;;
31282;SDS011;17915;52.540;13.604;2023-04-12T04:28:38;13.88;;;6.50;;
31282;SDS011;17915;52.540;13.604;2023-04-12T04:31:06;5.78;;;4.25;;
31282;SDS011;17915;52.540;13.604;2023-04-12T04:33:34;11.50;;;4.53;;
31282;SDS011;17915;52.540;13.604;2023-04-12T04:36:00;16.47;;;4.43;;
31282;SDS011;17915;52.540;13.604;2023-04-12T04:38:26;10.50;;;5.35;;
31282;SDS011;17915;52.540;13.604;2023-04-12T04:40:51;9.45;;;4.63;;
31282;SDS011;17915;52.540;13.604;2023-04-12T04:43:17;6.30;;;3.97;;
31282;SDS011;17915;52.540;13.604;2023-04-12T04:45:44;4.07;;;3.72;;
31282;SDS011;17915;52.540;13.604;2023-04-12T04:48:12;4.45;;;3.35;;
31282;SDS011;17915;52.540;13.604;2023-04-12T04:50:38;6.57;;;3.93;;
31282;SDS011;17915;52.540;13.604;2023-04-12T04:53:03;22.93;;;6.03;;
31282;SDS011;17915;52.540;13.604;2023-04-12T04:55:28;6.40;;;4.17;;
31282;SDS011;17915;52.540;13.604;2023-04-12T04:57:54;8.80;;;4.93;;
31282;SDS011;17915;52.540;13.604;2023-04-12T05:00:21;7.07;;;3.88;;
31282;SDS011;17915;52.540;13.604;2023-04-12T05:02:49;7.38;;;4.75;;
31282;SDS011;17915;52.540;13.604;2023-04-12T05:05:15;5.97;;;4.95;;
31282;SDS011;17915;52.540;13.604;2023-04-12T05:07:41;10.73;;;4.53;;
31282;SDS011;17915;52.540;13.604;2023-04-12T05:10:10;5.90;;;4.72;;
31282;SDS011;17915;52.540;13.604;2023-04-12T05:12:36;9.50;;;4.13;;
31282;SDS011;17915;52.540;13.604;2023-04-12T05:15:02;8.43;;;4.35;;
31282;SDS011;17915;52.540;13.604;2023-04-12T05:17:28;6.18;;;4.68;;
31282;SDS011;17915;52.540;13.604;2023-04-12T05:19:53;7.33;;;4.57;;
31282;SDS011;17915;52.540;13.604;2023-04-12T05:22:19;6.70;;;4.22;;
31282;SDS011;17915;52.540;13.604;2023-04-12T05:24:48;23.35;;;7.82;;
31282;SDS011;17915;52.540;13.604;2023-04-12T05:27:14;9.73;;;3.63;;
31282;SDS011;17915;52.540;13.604;2023-04-12T05:29:43;4.10;;;3.38;;
31282;SDS011;17915;52.540;13.604;2023-04-12T05:32:08;5.43;;;4.20;;
31282;SDS011;17915;52.540;13.604;2023-04-12T05:34:33;14.20;;;5.07;;
31282;SDS011;17915;52.540;13.604;2023-04-12T05:36:59;5.77;;;3.80;;
31282;SDS011;17915;52.540;13.604;2023-04-12T05:39:25;9.77;;;3.70;;
31282;SDS011;17915;52.540;13.604;2023-04-12T05:41:51;12.43;;;4.30;;
31282;SDS011;17915;52.540;13.604;2023-04-12T05:44:17;12.07;;;4.07;;
31282;SDS011;17915;52.540;13.604;2023-04-12T05:46:42;6.50;;;4.53;;
31282;SDS011;17915;52.540;13.604;2023-04-12T05:49:08;8.87;;;4.00;;
31282;SDS011;17915;52.540;13.604;2023-04-12T05:51:33;8.53;;;4.00;;
31282;SDS011;17915;52.540;13.604;2023-04-12T05:53:59;11.53;;;3.93;;
31282;SDS011;17915;52.540;13.604;2023-04-12T05:56:25;6.00;;;4.32;;
31282;SDS011;17915;52.540;13.604;2023-04-12T05:58:50;5.60;;;4.50;;
31282;SDS011;17915;52.540;13.604;2023-04-12T06:01:16;7.63;;;4.97;;
31282;SDS011;17915;52.540;13.604;2023-04-12T06:03:43;14.18;;;4.75;;
31282;SDS011;17915;52.540;13.604;2023-04-12T06:06:08;4.73;;;3.93;;
31282;SDS011;17915;52.540;13.604;2023-04-12T06:08:34;7.47;;;3.73;;
31282;SDS011;17915;52.540;13.604;2023-04-12T06:11:01;6.05;;;4.30;;
31282;SDS011;17915;52.540;13.604;2023-04-12T06:13:27;16.17;;;5.57;;
31282;SDS011;17915;52.540;13.604;2023-04-12T06:15:53;10.97;;;5.20;;
31282;SDS011;17915;52.540;13.604;2023-04-12T06:18:18;6.13;;;4.10;;
31282;SDS011;17915;52.540;13.604;2023-04-12T06:20:44;4.00;;;3.67;;
31282;SDS011;17915;52.540;13.604;2023-04-12T06:23:09;8.30;;;3.50;;
31282;SDS011;17915;52.540;13.604;2023-04-12T06:25:34;22.13;;;7.83;;
31282;SDS011;17915;52.540;13.604;2023-04-12T06:28:01;5.25;;;4.07;;
31282;SDS011;17915;52.540;13.604;2023-04-12T06:30:26;7.50;;;3.80;;
31282;SDS011;17915;52.540;13.604;2023-04-12T06:32:51;5.63;;;4.23;;
31282;SDS011;17915;52.540;13.604;2023-04-12T06:35:17;5.23;;;3.67;;
31282;SDS011;17915;52.540;13.604;2023-04-12T06:37:44;7.93;;;3.15;;
31282;SDS011;17915;52.540;13.604;2023-04-12T06:40:09;11.37;;;5.93;;
31282;SDS011;17915;52.540;13.604;2023-04-12T06:42:36;10.45;;;4.20;;
31282;SDS011;17915;52.540;13.604;2023-04-12T06:45:02;3.60;;;3.03;;
31282;SDS011;17915;52.540;13.604;2023-04-12T06:47:28;6.15;;;3.63;;
31282;SDS011;17915;52.540;13.604;2023-04-12T06:49:53;14.73;;;4.40;;
31282;SDS011;17915;52.540;13.604;2023-04-12T06:52:25;14.80;;;5.32;;
31282;SDS011;17915;52.540;13.604;2023-04-12T06:54:50;14.65;;;4.03;;
31282;SDS011;17915;52.540;13.604;2023-04-12T06:57:16;8.87;;;5.40;;
31282;SDS011;17915;52.540;13.604;2023-04-12T06:59:41;4.20;;;3.77;;
31282;SDS011;17915;52.540;13.604;2023-04-12T07:02:07;6.43;;;3.87;;
31282;SDS011;17915;52.540;13.604;2023-04-12T07:04:32;4.97;;;3.30;;
31282;SDS011;17915;52.540;13.604;2023-04-12T07:06:57;5.50;;;4.27;;
31282;SDS011;17915;52.540;13.604;2023-04-12T07:09:23;10.47;;;3.93;;
31282;SDS011;17915;52.540;13.604;2023-04-12T07:11:48;5.17;;;3.90;;
31282;SDS011;17915;52.540;13.604;2023-04-12T07:14:14;10.00;;;3.83;;
31282;SDS011;17915;52.540;13.604;2023-04-12T07:16:41;8.63;;;3.43;;
31282;SDS011;17915;52.540;13.604;2023-04-12T07:19:07;5.90;;;3.63;;
31282;SDS011;17915;52.540;13.604;2023-04-12T07:21:32;6.30;;;2.93;;
31282;SDS011;17915;52.540;13.604;2023-04-12T07:23:57;8.90;;;3.37;;
31282;SDS011;17915;52.540;13.604;2023-04-12T07:26:23;10.87;;;3.73;;
31282;SDS011;17915;52.540;13.604;2023-04-12T07:28:48;8.13;;;4.57;;
31282;SDS011;17915;52.540;13.604;2023-04-12T07:31:14;6.90;;;3.70;;
31282;SDS011;17915;52.540;13.604;2023-04-12T07:33:39;5.67;;;4.40;;
31282;SDS011;17915;52.540;13.604;2023-04-12T07:36:05;5.23;;;3.80;;
31282;SDS011;17915;52.540;13.604;2023-04-12T07:38:31;10.17;;;3.83;;
31282;SDS011;17915;52.540;13.604;2023-04-12T07:40:56;6.67;;;4.07;;
31282;SDS011;17915;52.540;13.604;2023-04-12T07:43:21;7.57;;;3.37;;
31282;SDS011;17915;52.540;13.604;2023-04-12T07:45:47;3.45;;;3.17;;
31282;SDS011;17915;52.540;13.604;2023-04-12T07:48:13;5.20;;;3.17;;
31282;SDS011;17915;52.540;13.604;2023-04-12T07:50:38;3.03;;;2.33;;
31282;SDS011;17915;52.540;13.604;2023-04-12T07:53:18;3.08;;;2.75;;
31282;SDS011;17915;52.540;13.604;2023-04-12T07:55:48;5.00;;;2.08;;
31282;SDS011;17915;52.540;13.604;2023-04-12T07:58:14;14.85;;;3.17;;
31282;SDS011;17915;52.540;13.604;2023-04-12T08:00:40;12.00;;;2.28;;
31282;SDS011;17915;52.540;13.604;2023-04-12T08:03:06;2.50;;;1.77;;
31282;SDS011;17915;52.540;13.604;2023-04-12T08:05:32;11.07;;;3.00;;
31282;SDS011;17915;52.540;13.604;2023-04-12T08:07:58;4.68;;;1.77;;
31282;SDS011;17915;52.540;13.604;2023-04-12T08:10:23;1.37;;;1.30;;
31282;SDS011;17915;52.540;13.604;2023-04-12T08:12:49;4.00;;;1.83;;
31282;SDS011;17915;52.540;13.604;2023-04-12T08:15:14;5.83;;;2.47;;
31282;SDS011;17915;52.540;13.604;2023-04-12T08:17:40;2.13;;;1.20;;
31282;SDS011;17915;52.540;13.604;2023-04-12T08:20:07;5.35;;;1.95;;
31282;SDS011;17915;52.540;13.604;2023-04-12T08:22:33;6.97;;;1.80;;
31282;SDS011;17915;52.540;13.604;2023-04-12T08:24:58;2.77;;;1.23;;
31282;SDS011;17915;52.540;13.604;2023-04-12T08:27:24;1.77;;;1.63;;
31282;SDS011;17915;52.540;13.604;2023-04-12T08:29:49;4.87;;;1.77;;
31282;SDS011;17915;52.540;13.604;2023-04-12T08:32:15;3.13;;;1.60;;
31282;SDS011;17915;52.540;13.604;2023-04-12T08:34:41;7.83;;;1.80;;
31282;SDS011;17915;52.540;13.604;2023-04-12T08:37:06;3.60;;;1.43;;
31282;SDS011;17915;52.540;13.604;2023-04-12T08:39:32;4.43;;;1.47;;
31282;SDS011;17915;52.540;13.604;2023-04-12T08:41:58;2.47;;;2.10;;
31282;SDS011;17915;52.540;13.604;2023-04-12T08:44:34;4.95;;;1.30;;
31282;SDS011;17915;52.540;13.604;2023-04-12T08:47:03;4.85;;;1.65;;
31282;SDS011;17915;52.540;13.604;2023-04-12T08:49:31;5.50;;;1.95;;
31282;SDS011;17915;52.540;13.604;2023-04-12T08:52:02;5.50;;;1.90;;
31282;SDS011;17915;52.540;13.604;2023-04-12T08:54:30;2.42;;;2.08;;
31282;SDS011;17915;52.540;13.604;2023-04-12T08:56:57;3.85;;;1.75;;
31282;SDS011;17915;52.540;13.604;2023-04-12T08:59:26;2.58;;;1.45;;
31282;SDS011;17915;52.540;13.604;2023-04-12T09:01:51;3.78;;;1.70;;
31282;SDS011;17915;52.540;13.604;2023-04-12T09:04:18;3.25;;;1.30;;
31282;SDS011;17915;52.540;13.604;2023-04-12T09:06:43;11.17;;;2.90;;
31282;SDS011;17915;52.540;13.604;2023-04-12T09:09:09;3.17;;;1.90;;
31282;SDS011;17915;52.540;13.604;2023-04-12T09:11:35;1.67;;;1.45;;
31282;SDS011;17915;52.540;13.604;2023-04-12T09:14:00;6.43;;;3.20;;
31282;SDS011;17915;52.540;13.604;2023-04-12T09:16:32;6.20;;;2.30;;
31282;SDS011;17915;52.540;13.604;2023-04-12T09:18:58;6.47;;;2.20;;
31282;SDS011;17915;52.540;13.604;2023-04-12T09:21:26;8.23;;;1.75;;
31282;SDS011;17915;52.540;13.604;2023-04-12T09:24:01;4.40;;;1.53;;
31282;SDS011;17915;52.540;13.604;2023-04-12T09:26:28;9.73;;;1.98;;
31282;SDS011;17915;52.540;13.604;2023-04-12T09:28:55;3.20;;;1.48;;
31282;SDS011;17915;52.540;13.604;2023-04-12T09:31:21;4.33;;;2.07;;
31282;SDS011;17915;52.540;13.604;2023-04-12T09:33:46;5.27;;;2.30;;
31282;SDS011;17915;52.540;13.604;2023-04-12T09:36:12;11.02;;;3.75;;
31282;SDS011;17915;52.540;13.604;2023-04-12T09:38:38;3.50;;;2.38;;
31282;SDS011;17915;52.540;13.604;2023-04-12T09:41:16;5.90;;;2.92;;
31282;SDS011;17915;52.540;13.604;2023-04-12T09:43:43;3.80;;;1.23;;
31282;SDS011;17915;52.540;13.604;2023-04-12T09:46:09;6.40;;;1.80;;
31282;SDS011;17915;52.540;13.604;2023-04-12T09:48:36;6.60;;;1.90;;
31282;SDS011;17915;52.540;13.604;2023-04-12T09:51:05;3.33;;;1.60;;
31282;SDS011;17915;52.540;13.604;2023-04-12T09:53:31;8.55;;;2.13;;
31282;SDS011;17915;52.540;13.604;2023-04-12T09:55:58;4.57;;;1.30;;
31282;SDS011;17915;52.540;13.604;2023-04-12T09:58:27;7.40;;;1.95;;
31282;SDS011;17915;52.540;13.604;2023-04-12T10:00:52;6.20;;;1.50;;
31282;SDS011;17915;52.540;13.604;2023-04-12T10:03:20;4.82;;;2.80;;
31282;SDS011;17915;52.540;13.604;2023-04-12T10:05:45;5.97;;;1.90;;
31282;SDS011;17915;52.540;13.604;2023-04-12T10:08:11;4.83;;;1.60;;
31282;SDS011;17915;52.540;13.604;2023-04-12T10:10:37;2.80;;;1.10;;
31282;SDS011;17915;52.540;13.604;2023-04-12T10:13:03;3.43;;;1.77;;
31282;SDS011;17915;52.540;13.604;2023-04-12T10:15:29;8.30;;;1.80;;
31282;SDS011;17915;52.540;13.604;2023-04-12T10:20:21;8.63;;;2.47;;
31282;SDS011;17915;52.540;13.604;2023-04-12T10:25:14;5.82;;;2.25;;
31282;SDS011;17915;52.540;13.604;2023-04-12T10:27:43;1.92;;;1.30;;
31282;SDS011;17915;52.540;13.604;2023-04-12T10:35:28;4.78;;;1.70;;
31282;SDS011;17915;52.540;13.604;2023-04-12T10:38:14;2.33;;;1.15;;
31282;SDS011;17915;52.540;13.604;2023-04-12T10:43:32;2.70;;;1.35;;
31282;SDS011;17915;52.540;13.604;2023-04-12T10:45:57;9.60;;;4.57;;
31282;SDS011;17915;52.540;13.604;2023-04-12T10:48:31;7.05;;;1.80;;
31282;SDS011;17915;52.540;13.604;2023-04-12T10:53:49;10.02;;;3.40;;
31282;SDS011;17915;52.540;13.604;2023-04-12T10:58:57;3.10;;;2.80;;
31282;SDS011;17915;52.540;13.604;2023-04-12T11:01:23;4.38;;;1.63;;
31282;SDS011;17915;52.540;13.604;2023-04-12T11:17:24;2.83;;;1.75;;
31282;SDS011;17915;52.540;13.604;2023-04-12T11:19:51;3.20;;;1.53;;
31282;SDS011;17915;52.540;13.604;2023-04-12T11:22:18;3.45;;;1.77;;
31282;SDS011;17915;52.540;13.604;2023-04-12T11:24:49;5.80;;;1.67;;
31282;SDS011;17915;52.540;13.604;2023-04-12T11:27:17;3.58;;;1.80;;
31282;SDS011;17915;52.540;13.604;2023-04-12T11:29:43;4.75;;;1.90;;
31282;SDS011;17915;52.540;13.604;2023-04-12T11:32:11;4.28;;;1.67;;
31282;SDS011;17915;52.540;13.604;2023-04-12T11:34:37;7.78;;;2.53;;
31282;SDS011;17915;52.540;13.604;2023-04-12T11:37:04;6.97;;;2.00;;
31282;SDS011;17915;52.540;13.604;2023-04-12T11:39:32;3.92;;;1.42;;
31282;SDS011;17915;52.540;13.604;2023-04-12T11:41:58;2.90;;;1.45;;
31282;SDS011;17915;52.540;13.604;2023-04-12T11:44:26;6.53;;;2.45;;
31282;SDS011;17915;52.540;13.604;2023-04-12T11:46:51;3.00;;;1.80;;
31282;SDS011;17915;52.540;13.604;2023-04-12T11:49:18;4.18;;;1.73;;
31282;SDS011;17915;52.540;13.604;2023-04-12T11:51:44;2.05;;;1.48;;
31282;SDS011;17915;52.540;13.604;2023-04-12T11:54:10;3.47;;;1.50;;
31282;SDS011;17915;52.540;13.604;2023-04-12T11:56:36;3.35;;;1.58;;
31282;SDS011;17915;52.540;13.604;2023-04-12T11:59:02;3.58;;;2.13;;
31282;SDS011;17915;52.540;13.604;2023-04-12T12:01:28;5.47;;;1.30;;
31282;SDS011;17915;52.540;13.604;2023-04-12T12:03:54;3.00;;;1.53;;
31282;SDS011;17915;52.540;13.604;2023-04-12T12:06:19;6.93;;;2.88;;
31282;SDS011;17915;52.540;13.604;2023-04-12T12:08:47;10.60;;;2.30;;
31282;SDS011;17915;52.540;13.604;2023-04-12T12:11:15;3.00;;;1.80;;
31282;SDS011;17915;52.540;13.604;2023-04-12T12:13:43;4.63;;;1.77;;
31282;SDS011;17915;52.540;13.604;2023-04-12T12:16:12;3.35;;;1.80;;
31282;SDS011;17915;52.540;13.604;2023-04-12T12:18:41;8.35;;;2.33;;
31282;SDS011;17915;52.540;13.604;2023-04-12T12:21:13;11.38;;;1.70;;
31282;SDS011;17915;52.540;13.604;2023-04-12T12:23:41;5.63;;;2.72;;
31282;SDS011;17915;52.540;13.604;2023-04-12T12:26:07;6.15;;;2.42;;
31282;SDS011;17915;52.540;13.604;2023-04-12T12:28:38;3.30;;;1.40;;
31282;SDS011;17915;52.540;13.604;2023-04-12T12:31:05;2.30;;;1.30;;
31282;SDS011;17915;52.540;13.604;2023-04-12T12:33:37;3.67;;;1.30;;
31282;SDS011;17915;52.540;13.604;2023-04-12T12:36:04;4.90;;;1.75;;
31282;SDS011;17915;52.540;13.604;2023-04-12T12:38:51;3.38;;;1.60;;
31282;SDS011;17915;52.540;13.604;2023-04-12T12:41:23;2.60;;;2.40;;
31282;SDS011;17915;52.540;13.604;2023-04-12T12:43:49;1.35;;;0.98;;
31282;SDS011;17915;52.540;13.604;2023-04-12T12:46:16;5.75;;;1.92;;
31282;SDS011;17915;52.540;13.604;2023-04-12T12:48:46;5.68;;;1.10;;
31282;SDS011;17915;52.540;13.604;2023-04-12T12:51:12;7.50;;;1.63;;
31282;SDS011;17915;52.540;13.604;2023-04-12T12:53:41;2.55;;;1.27;;
31282;SDS011;17915;52.540;13.604;2023-04-12T12:56:07;3.25;;;1.65;;
31282;SDS011;17915;52.540;13.604;2023-04-12T12:58:34;6.63;;;1.77;;
31282;SDS011;17915;52.540;13.604;2023-04-12T13:01:00;5.88;;;2.17;;
31282;SDS011;17915;52.540;13.604;2023-04-12T13:03:25;7.40;;;1.50;;
31282;SDS011;17915;52.540;13.604;2023-04-12T13:05:51;3.67;;;1.10;;
31282;SDS011;17915;52.540;13.604;2023-04-12T13:08:16;5.47;;;2.33;;
31282;SDS011;17915;52.540;13.604;2023-04-12T13:10:42;4.43;;;1.53;;
31282;SDS011;17915;52.540;13.604;2023-04-12T13:13:07;3.60;;;1.70;;
31282;SDS011;17915;52.540;13.604;2023-04-12T13:15:33;2.60;;;2.10;;
31282;SDS011;17915;52.540;13.604;2023-04-12T13:17:58;4.97;;;1.47;;
31282;SDS011;17915;52.540;13.604;2023-04-12T13:20:24;5.07;;;2.08;;
31282;SDS011;17915;52.540;13.604;2023-04-12T13:22:51;7.38;;;1.67;;
31282;SDS011;17915;52.540;13.604;2023-04-12T13:25:17;7.13;;;2.20;;
31282;SDS011;17915;52.540;13.604;2023-04-12T13:27:49;2.95;;;1.58;;
31282;SDS011;17915;52.540;13.604;2023-04-12T13:30:16;3.38;;;1.60;;
31282;SDS011;17915;52.540;13.604;2023-04-12T13:32:42;5.68;;;1.50;;
31282;SDS011;17915;52.540;13.604;2023-04-12T13:35:08;4.40;;;1.20;;
31282;SDS011;17915;52.540;13.604;2023-04-12T13:37:34;3.17;;;1.92;;
31282;SDS011;17915;52.540;13.604;2023-04-12T13:40:00;3.20;;;2.00;;
31282;SDS011;17915;52.540;13.604;2023-04-12T13:42:25;3.60;;;1.67;;
31282;SDS011;17915;52.540;13.604;2023-04-12T13:44:50;3.80;;;1.40;;
31282;SDS011;17915;52.540;13.604;2023-04-12T13:47:16;3.97;;;1.50;;
31282;SDS011;17915;52.540;13.604;2023-04-12T13:49:44;3.10;;;1.80;;
31282;SDS011;17915;52.540;13.604;2023-04-12T13:52:10;3.57;;;1.97;;
31282;SDS011;17915;52.540;13.604;2023-04-12T13:54:35;8.60;;;2.33;;
31282;SDS011;17915;52.540;13.604;2023-04-12T13:57:00;4.60;;;1.67;;
31282;SDS011;17915;52.540;13.604;2023-04-12T13:59:26;4.00;;;1.40;;
31282;SDS011;17915;52.540;13.604;2023-04-12T14:01:51;5.07;;;2.13;;
31282;SDS011;17915;52.540;13.604;2023-04-12T14:04:17;3.20;;;1.63;;
31282;SDS011;17915;52.540;13.604;2023-04-12T14:06:42;5.33;;;1.40;;
31282;SDS011;17915;52.540;13.604;2023-04-12T14:11:43;4.22;;;1.75;;
31282;SDS011;17915;52.540;13.604;2023-04-12T14:14:10;3.05;;;1.45;;
31282;SDS011;17915;52.540;13.604;2023-04-12T14:16:36;3.07;;;1.67;;
31282;SDS011;17915;52.540;13.604;2023-04-12T14:19:01;3.63;;;1.73;;
31282;SDS011;17915;52.540;13.604;2023-04-12T14:21:27;9.97;;;2.03;;
31282;SDS011;17915;52.540;13.604;2023-04-12T14:23:53;14.65;;;1.90;;
31282;SDS011;17915;52.540;13.604;2023-04-12T14:26:19;3.17;;;1.60;;
31282;SDS011;17915;52.540;13.604;2023-04-12T14:28:44;1.87;;;1.50;;
31282;SDS011;17915;52.540;13.604;2023-04-12T14:31:09;3.07;;;1.33;;
31282;SDS011;17915;52.540;13.604;2023-04-12T14:33:35;4.73;;;1.77;;
31282;SDS011;17915;52.540;13.604;2023-04-12T14:36:00;3.23;;;1.73;;
31282;SDS011;17915;52.540;13.604;2023-04-12T14:38:28;3.00;;;2.35;;
31282;SDS011;17915;52.540;13.604;2023-04-12T14:40:54;3.75;;;1.98;;
31282;SDS011;17915;52.540;13.604;2023-04-12T14:43:20;4.27;;;1.77;;
31282;SDS011;17915;52.540;13.604;2023-04-12T14:45:45;5.70;;;1.97;;
31282;SDS011;17915;52.540;13.604;2023-04-12T14:48:11;4.00;;;1.70;;
31282;SDS011;17915;52.540;13.604;2023-04-12T14:50:36;6.17;;;1.97;;
31282;SDS011;17915;52.540;13.604;2023-04-12T14:53:02;3.87;;;1.40;;
31282;SDS011;17915;52.540;13.604;2023-04-12T14:55:27;8.53;;;2.33;;
31282;SDS011;17915;52.540;13.604;2023-04-12T14:57:52;1.97;;;1.83;;
31282;SDS011;17915;52.540;13.604;2023-04-12T15:00:18;1.83;;;1.50;;
31282;SDS011;17915;52.540;13.604;2023-04-12T15:02:44;5.50;;;2.45;;
31282;SDS011;17915;52.540;13.604;2023-04-12T15:05:11;2.83;;;1.80;;
31282;SDS011;17915;52.540;13.604;2023-04-12T15:07:36;4.37;;;1.57;;
31282;SDS011;17915;52.540;13.604;2023-04-12T15:10:02;2.20;;;1.60;;
31282;SDS011;17915;52.540;13.604;2023-04-12T15:12:28;6.53;;;1.63;;
31282;SDS011;17915;52.540;13.604;2023-04-12T15:14:57;3.58;;;1.98;;
31282;SDS011;17915;52.540;13.604;2023-04-12T15:17:22;4.93;;;3.00;;
31282;SDS011;17915;52.540;13.604;2023-04-12T15:19:48;3.63;;;1.90;;
31282;SDS011;17915;52.540;13.604;2023-04-12T15:22:14;4.15;;;1.55;;
31282;SDS011;17915;52.540;13.604;2023-04-12T15:24:39;7.73;;;1.80;;
31282;SDS011;17915;52.540;13.604;2023-04-12T15:27:04;7.67;;;1.40;;